This is the latest recevied weather packets stored in our database for station/object MB7UUE. If no packets are shown the sender has not sent any weather packets the latest 1 day(s).
| Time | Temp. | Humidity | Pressure | Rain* | Wind** | Luminosity | Snow |
|---|---|---|---|---|---|---|---|
| 1778093954 | 12.22° C | 63% | 1013.5 hPa | 0 mm | - | - | - |
| 1778090535 | 12.78° C | 61% | 1013.1 hPa | 0 mm | - | - | - |
| 1778088255 | 12.78° C | 58% | 1012.9 hPa | 0 mm | - | - | - |
| 1778084834 | 12.78° C | 58% | 1012.9 hPa | 0 mm | - | - | - |
| 1778082555 | 12.78° C | 56% | 1012.9 hPa | 0 mm | - | - | - |
| 1778081415 | 12.78° C | 56% | 1012.9 hPa | 0 mm | - | - | - |
| 1778080274 | 13.33° C | 56% | 1012.9 hPa | 0 mm | - | - | - |
| 1778079134 | 12.78° C | 57% | 1012.8 hPa | 0 mm | - | - | - |
| 1778075715 | 13.33° C | 58% | 1012.8 hPa | 0 mm | - | - | - |
| 1778073435 | 12.78° C | 59% | 1013 hPa | 0 mm | - | - | - |
| 1778070014 | 12.22° C | 63% | 1012.9 hPa | 0 mm | - | - | - |
| 1778066594 | 12.78° C | 59% | 1012.9 hPa | 0 mm | - | - | - |
| 1778065455 | 12.78° C | 58% | 1012.9 hPa | 0 mm | - | - | - |
| 1778064314 | 12.22° C | 55% | 1012.8 hPa | 0 mm | - | - | - |
| 1778062034 | 12.22° C | 59% | 1012.9 hPa | 0 mm | - | - | - |
| 1778059754 | 11.11° C | 63% | 1012.9 hPa | 0 mm | - | - | - |
| 1778056336 | 10° C | 69% | 1012.9 hPa | 0 mm | - | - | - |
| 1778055195 | 10° C | 69% | 1012.9 hPa | 0 mm | - | - | - |
| 1778054055 | 10° C | 72% | 1012.9 hPa | 0 mm | - | - | - |
| 1778052914 | 9.44° C | 72% | 1012.8 hPa | 0 mm | - | - | - |
| 1778051775 | 9.44° C | 72% | 1012.8 hPa | 0 mm | - | - | - |
| 1778050634 | 9.44° C | 74% | 1012.6 hPa | 0 mm | - | - | - |
| 1778049495 | 8.33° C | 78% | 1012.4 hPa | 0 mm | - | - | - |
| 1778048355 | 8.33° C | 78% | 1012.5 hPa | 0 mm | - | - | - |
| 1778047216 | 7.78° C | 78% | 1012.4 hPa | 0 mm | - | - | - |
* Rain latest hour (hover to see other rain measurements)
** Current wind speed in m/s (hover to see current wind gust speed)